Time;durP1;ratioP1;P1;durP2;ratioP2;P2;SDS_P1;SDS_P2;PMS_P1;PMS_P2;Temp;Humidity;BMP_temperature;BMP_pressure;BME280_temperature;BME280_humidity;BME280_pressure;Samples;Min_cycle;Max_cycle;Signal;HPM_P1;HPM_P2
2023/05/10 00:00:27;;;;;;;0.60;0.30;;;;;;;;;;5055947;28;20033;-58
2023/05/10 00:02:53;;;;;;;0.82;0.40;;;;;;;;;;5056394;28;20052;-58
2023/05/10 00:05:19;;;;;;;0.82;0.40;;;;;;;;;;5056875;28;20029;-58
2023/05/10 00:07:45;;;;;;;0.82;0.40;;;;;;;;;;5056644;28;20037;-58
2023/05/10 00:10:11;;;;;;;0.80;0.40;;;;;;;;;;5056222;28;20082;-58
2023/05/10 00:12:37;;;;;;;2.17;0.47;;;;;;;;;;5056623;28;20454;-58
2023/05/10 00:15:03;;;;;;;0.57;0.30;;;;;;;;;;5056536;28;20045;-58
2023/05/10 00:17:29;;;;;;;0.50;0.20;;;;;;;;;;5056147;28;20087;-58
2023/05/10 00:19:55;;;;;;;0.93;0.25;;;;;;;;;;5056519;28;20028;-58
2023/05/10 00:22:21;;;;;;;0.57;0.35;;;;;;;;;;5055782;28;20107;-57
2023/05/10 00:24:47;;;;;;;0.80;0.38;;;;;;;;;;5055893;28;20036;-58
2023/05/10 00:27:13;;;;;;;0.68;0.30;;;;;;;;;;5055646;28;20025;-58
2023/05/10 00:29:39;;;;;;;0.75;0.30;;;;;;;;;;5055947;28;20116;-58
2023/05/10 00:32:05;;;;;;;2.22;0.60;;;;;;;;;;5055888;28;20095;-58
2023/05/10 00:34:32;;;;;;;0.38;0.28;;;;;;;;;;5055748;28;20021;-58
2023/05/10 00:36:58;;;;;;;4.80;0.30;;;;;;;;;;5056524;28;20036;-57
2023/05/10 00:39:24;;;;;;;0.38;0.20;;;;;;;;;;5055655;28;20064;-57
2023/05/10 00:41:50;;;;;;;0.47;0.30;;;;;;;;;;5056225;28;20028;-58
2023/05/10 00:44:16;;;;;;;0.60;0.20;;;;;;;;;;5055850;28;20025;-58
2023/05/10 00:46:42;;;;;;;0.63;0.20;;;;;;;;;;5055944;28;20107;-57
2023/05/10 00:49:08;;;;;;;0.47;0.20;;;;;;;;;;5055479;28;20040;-57
2023/05/10 00:51:34;;;;;;;0.93;0.20;;;;;;;;;;5055352;28;20028;-57
2023/05/10 00:54:00;;;;;;;0.10;0.10;;;;;;;;;;5055488;28;20056;-58
2023/05/10 00:56:28;;;;;;;0.10;0.10;;;;;;;;;;5055394;28;20037;-57
2023/05/10 00:58:54;;;;;;;1.95;0.10;;;;;;;;;;5055312;28;20031;-58
2023/05/10 01:01:20;;;;;;;0.40;0.10;;;;;;;;;;5055639;28;20431;-58
2023/05/10 01:03:47;;;;;;;0.25;0.10;;;;;;;;;;5055551;28;20108;-58
2023/05/10 01:06:13;;;;;;;0.50;0.30;;;;;;;;;;5055582;28;20032;-57
2023/05/10 01:08:39;;;;;;;0.22;0.10;;;;;;;;;;5055489;28;20057;-57
2023/05/10 01:11:05;;;;;;;0.25;0.10;;;;;;;;;;5055367;28;20104;-57
2023/05/10 01:13:34;;;;;;;0.40;0.10;;;;;;;;;;5054954;28;20078;-58
2023/05/10 01:16:02;;;;;;;2.72;0.35;;;;;;;;;;5055425;28;20386;-58
2023/05/10 01:18:30;;;;;;;0.38;0.10;;;;;;;;;;5055685;28;20036;-58
2023/05/10 01:21:05;;;;;;;0.10;0.10;;;;;;;;;;5054900;28;20112;-57
2023/05/10 01:23:31;;;;;;;0.40;0.20;;;;;;;;;;5054870;28;20087;-57
2023/05/10 01:26:03;;;;;;;0.22;0.10;;;;;;;;;;5055149;28;20029;-57
2023/05/10 01:28:35;;;;;;;0.20;0.10;;;;;;;;;;5055072;28;20520;-58
2023/05/10 01:31:09;;;;;;;0.20;0.15;;;;;;;;;;5055164;28;20028;-57
2023/05/10 01:33:52;;;;;;;0.32;0.13;;;;;;;;;;5054950;28;20356;-57
2023/05/10 01:36:30;;;;;;;0.10;0.10;;;;;;;;;;5054806;28;20033;-58
2023/05/10 01:39:02;;;;;;;0.30;0.15;;;;;;;;;;5055062;28;20033;-57
2023/05/10 01:41:40;;;;;;;0.40;0.10;;;;;;;;;;5054461;28;20029;-58
2023/05/10 01:44:16;;;;;;;0.77;0.20;;;;;;;;;;5054417;28;20049;-58
2023/05/10 01:46:42;;;;;;;0.30;0.10;;;;;;;;;;5055123;28;20025;-58
2023/05/10 01:49:14;;;;;;;0.20;0.10;;;;;;;;;;5054288;28;20047;-58
2023/05/10 01:51:46;;;;;;;0.13;0.00;;;;;;;;;;5054298;28;20024;-57
2023/05/10 01:54:13;;;;;;;0.40;0.20;;;;;;;;;;5054847;28;20033;-57
2023/05/10 01:56:40;;;;;;;2.30;0.10;;;;;;;;;;5054473;28;20037;-58
2023/05/10 01:59:09;;;;;;;0.52;0.20;;;;;;;;;;5054694;28;20143;-57
2023/05/10 02:01:36;;;;;;;0.15;0.10;;;;;;;;;;5054187;28;20048;-58
2023/05/10 02:04:03;;;;;;;0.60;0.20;;;;;;;;;;5054409;28;20029;-57
2023/05/10 02:06:29;;;;;;;0.17;0.10;;;;;;;;;;5053911;28;20029;-57
2023/05/10 02:08:55;;;;;;;0.30;0.13;;;;;;;;;;5054078;28;20090;-58
2023/05/10 02:11:22;;;;;;;0.20;0.10;;;;;;;;;;5053714;28;20029;-57
2023/05/10 02:13:48;;;;;;;0.25;0.20;;;;;;;;;;5054099;28;20036;-57
2023/05/10 02:16:15;;;;;;;0.10;0.10;;;;;;;;;;5054850;28;20049;-57
2023/05/10 02:18:41;;;;;;;0.30;0.10;;;;;;;;;;5054206;28;20025;-58
2023/05/10 02:21:08;;;;;;;0.25;0.10;;;;;;;;;;5053903;28;20021;-58
2023/05/10 02:23:35;;;;;;;0.22;0.13;;;;;;;;;;5053523;28;20025;-57
2023/05/10 02:26:02;;;;;;;0.35;0.17;;;;;;;;;;5054351;28;20086;-58
2023/05/10 02:28:28;;;;;;;0.25;0.10;;;;;;;;;;5053577;28;20025;-58
2023/05/10 02:30:54;;;;;;;0.38;0.10;;;;;;;;;;5053771;28;20025;-58
2023/05/10 02:33:21;;;;;;;0.20;0.10;;;;;;;;;;5053703;28;20017;-58
2023/05/10 02:35:47;;;;;;;0.32;0.10;;;;;;;;;;5053963;28;20037;-57
2023/05/10 02:38:14;;;;;;;0.55;0.20;;;;;;;;;;5053692;28;20109;-58
2023/05/10 02:40:42;;;;;;;0.28;0.10;;;;;;;;;;5053960;28;20036;-58
2023/05/10 02:43:09;;;;;;;0.22;0.13;;;;;;;;;;5053963;28;20017;-57
2023/05/10 02:45:36;;;;;;;0.60;0.20;;;;;;;;;;5053938;28;20025;-58
2023/05/10 02:48:02;;;;;;;0.17;0.10;;;;;;;;;;5053596;28;20032;-58
2023/05/10 02:50:29;;;;;;;0.17;0.10;;;;;;;;;;5053560;28;20032;-58
2023/05/10 02:53:00;;;;;;;3.75;0.30;;;;;;;;;;5053554;28;20025;-58
2023/05/10 02:55:27;;;;;;;0.55;0.20;;;;;;;;;;5053979;28;20021;-58
2023/05/10 02:57:57;;;;;;;0.28;0.10;;;;;;;;;;5053507;28;20355;-58
2023/05/10 03:00:24;;;;;;;0.20;0.00;;;;;;;;;;5053818;28;20063;-58
2023/05/10 03:02:50;;;;;;;0.40;0.38;;;;;;;;;;5053378;28;20025;-58
2023/05/10 03:05:16;;;;;;;0.25;0.15;;;;;;;;;;5053412;28;20036;-58
2023/05/10 03:07:42;;;;;;;0.40;0.10;;;;;;;;;;5053707;28;20379;-58
2023/05/10 03:10:09;;;;;;;0.35;0.13;;;;;;;;;;5053265;28;20029;-58
2023/05/10 03:12:53;;;;;;;0.28;0.20;;;;;;;;;;5053657;28;20087;-58
2023/05/10 03:15:25;;;;;;;1.13;0.32;;;;;;;;;;5053449;28;20525;-57
2023/05/10 03:18:02;;;;;;;0.30;0.20;;;;;;;;;;5053366;28;20076;-58
2023/05/10 03:20:34;;;;;;;0.08;0.00;;;;;;;;;;5054135;28;20027;-58
2023/05/10 03:23:02;;;;;;;0.32;0.22;;;;;;;;;;5054119;28;20029;-58
2023/05/10 03:25:30;;;;;;;0.28;0.17;;;;;;;;;;5053269;28;20108;-57
2023/05/10 03:27:56;;;;;;;0.80;0.40;;;;;;;;;;5053177;28;20053;-58
2023/05/10 03:30:22;;;;;;;0.95;0.38;;;;;;;;;;5053231;28;20341;-58
2023/05/10 03:32:48;;;;;;;1.20;0.60;;;;;;;;;;5053198;28;20029;-57
2023/05/10 03:35:14;;;;;;;1.17;0.50;;;;;;;;;;5054518;28;20466;-58
2023/05/10 03:37:40;;;;;;;0.65;0.30;;;;;;;;;;5057134;28;20073;-58
2023/05/10 03:40:07;;;;;;;0.95;0.50;;;;;;;;;;5057492;28;20507;-57
2023/05/10 03:42:33;;;;;;;0.90;0.40;;;;;;;;;;5056812;28;20029;-58
2023/05/10 03:44:58;;;;;;;0.57;0.30;;;;;;;;;;5056357;28;20435;-57
2023/05/10 03:47:24;;;;;;;0.93;0.40;;;;;;;;;;5056732;28;20036;-57
2023/05/10 03:49:50;;;;;;;1.73;0.70;;;;;;;;;;5056672;28;20049;-58
2023/05/10 03:52:16;;;;;;;0.43;0.32;;;;;;;;;;5056500;28;20056;-58
2023/05/10 03:54:42;;;;;;;1.65;0.55;;;;;;;;;;5056613;28;20348;-58
2023/05/10 03:57:09;;;;;;;1.23;0.55;;;;;;;;;;5056579;28;20036;-58
2023/05/10 03:59:35;;;;;;;2.03;0.73;;;;;;;;;;5056443;28;20383;-57
2023/05/10 04:02:01;;;;;;;1.30;0.60;;;;;;;;;;5056359;28;20029;-57
2023/05/10 04:04:27;;;;;;;1.48;0.60;;;;;;;;;;5056106;28;20115;-57
2023/05/10 04:06:53;;;;;;;0.93;0.38;;;;;;;;;;5056419;28;20142;-57
2023/05/10 04:09:19;;;;;;;0.93;0.50;;;;;;;;;;5056061;28;20066;-58
2023/05/10 04:11:45;;;;;;;2.92;0.70;;;;;;;;;;5056371;28;20162;-57
2023/05/10 04:14:11;;;;;;;5.20;0.60;;;;;;;;;;5056328;28;20085;-58
2023/05/10 04:16:37;;;;;;;1.20;0.40;;;;;;;;;;5054437;28;20040;-57
2023/05/10 04:19:03;;;;;;;0.95;0.45;;;;;;;;;;5056895;28;20035;-58
2023/05/10 04:21:30;;;;;;;0.90;0.38;;;;;;;;;;5055957;28;20027;-57
2023/05/10 04:23:56;;;;;;;1.20;0.70;;;;;;;;;;5055918;28;20025;-58
2023/05/10 04:26:22;;;;;;;1.23;0.68;;;;;;;;;;5055745;28;20032;-57
2023/05/10 04:28:48;;;;;;;0.80;0.32;;;;;;;;;;5056239;28;20516;-58
2023/05/10 04:31:14;;;;;;;2.38;0.40;;;;;;;;;;5055873;28;20028;-57
2023/05/10 04:33:40;;;;;;;1.15;0.50;;;;;;;;;;5056036;28;20029;-57
2023/05/10 04:36:06;;;;;;;1.42;1.10;;;;;;;;;;5055775;28;20422;-58
2023/05/10 04:38:32;;;;;;;2.83;0.68;;;;;;;;;;5055735;28;20036;-57
2023/05/10 04:41:07;;;;;;;1.88;0.75;;;;;;;;;;5055710;28;20025;-57
2023/05/10 04:43:33;;;;;;;1.45;0.82;;;;;;;;;;5055576;28;20028;-57
2023/05/10 04:45:59;;;;;;;1.27;0.65;;;;;;;;;;5055832;28;20518;-57
2023/05/10 04:48:25;;;;;;;1.00;0.40;;;;;;;;;;5055057;28;20032;-58
2023/05/10 04:50:51;;;;;;;1.10;0.45;;;;;;;;;;5055086;28;20036;-58
2023/05/10 04:53:17;;;;;;;1.30;0.70;;;;;;;;;;5055313;28;20458;-58
2023/05/10 04:55:43;;;;;;;1.05;0.60;;;;;;;;;;5055645;28;20356;-58
2023/05/10 04:58:12;;;;;;;1.05;0.47;;;;;;;;;;5055513;28;20032;-58
2023/05/10 05:00:38;;;;;;;0.88;0.50;;;;;;;;;;5054045;28;20119;-58
2023/05/10 05:03:04;;;;;;;2.10;0.60;;;;;;;;;;5055709;28;20024;-58
2023/05/10 05:05:30;;;;;;;1.25;0.60;;;;;;;;;;5055431;28;20374;-58
2023/05/10 05:07:56;;;;;;;1.40;0.60;;;;;;;;;;5055225;28;20029;-57
2023/05/10 05:10:22;;;;;;;1.05;0.60;;;;;;;;;;5054809;28;20554;-58
2023/05/10 05:12:48;;;;;;;0.70;0.45;;;;;;;;;;5055093;28;20031;-58
2023/05/10 05:15:16;;;;;;;1.98;0.70;;;;;;;;;;5054572;28;20084;-58
2023/05/10 05:17:42;;;;;;;1.25;0.55;;;;;;;;;;5055450;28;20196;-57
2023/05/10 05:20:10;;;;;;;1.27;0.77;;;;;;;;;;5054917;28;20380;-58
2023/05/10 05:22:36;;;;;;;1.30;0.60;;;;;;;;;;5054850;28;20125;-58
2023/05/10 05:25:03;;;;;;;2.38;0.90;;;;;;;;;;5055328;28;20116;-58
2023/05/10 05:27:29;;;;;;;1.60;0.68;;;;;;;;;;5055392;28;20029;-58
2023/05/10 05:29:56;;;;;;;1.27;0.80;;;;;;;;;;5054569;28;20061;-58
2023/05/10 05:32:22;;;;;;;0.90;0.43;;;;;;;;;;5054492;28;20024;-58
2023/05/10 05:34:48;;;;;;;5.22;0.80;;;;;;;;;;5054692;28;20025;-58
2023/05/10 05:37:15;;;;;;;3.47;0.40;;;;;;;;;;5054549;28;20029;-58
2023/05/10 05:39:41;;;;;;;0.98;0.40;;;;;;;;;;5055095;28;20041;-58
2023/05/10 05:42:07;;;;;;;1.23;0.68;;;;;;;;;;5054959;28;20024;-58
2023/05/10 05:44:33;;;;;;;0.98;0.50;;;;;;;;;;5054514;28;20108;-58
2023/05/10 05:46:59;;;;;;;1.27;0.65;;;;;;;;;;5054033;28;20079;-58
2023/05/10 05:49:24;;;;;;;1.63;0.85;;;;;;;;;;5054315;28;20025;-58
2023/05/10 05:51:50;;;;;;;1.70;0.68;;;;;;;;;;5053994;28;20032;-58
2023/05/10 05:54:16;;;;;;;1.50;0.70;;;;;;;;;;5054236;28;20033;-58
2023/05/10 05:56:44;;;;;;;1.45;0.57;;;;;;;;;;5054755;28;20163;-58
2023/05/10 05:59:10;;;;;;;3.08;0.90;;;;;;;;;;5053762;28;20443;-59
2023/05/10 06:01:35;;;;;;;1.27;0.70;;;;;;;;;;5054144;28;20032;-58
2023/05/10 06:04:01;;;;;;;1.85;1.05;;;;;;;;;;5054060;28;20052;-58
2023/05/10 06:06:27;;;;;;;1.05;0.52;;;;;;;;;;5054107;28;20038;-58
2023/05/10 06:08:53;;;;;;;1.45;0.63;;;;;;;;;;5053953;28;20040;-58
2023/05/10 06:11:20;;;;;;;1.55;0.75;;;;;;;;;;5054546;28;20363;-58
2023/05/10 06:13:46;;;;;;;1.40;0.90;;;;;;;;;;5054471;28;20049;-58
2023/05/10 06:16:13;;;;;;;1.17;0.70;;;;;;;;;;5054150;28;20049;-58
2023/05/10 06:18:39;;;;;;;1.83;0.85;;;;;;;;;;5054650;28;20111;-58
2023/05/10 06:21:05;;;;;;;1.60;0.75;;;;;;;;;;5053639;28;20519;-58
2023/05/10 06:23:31;;;;;;;1.70;1.00;;;;;;;;;;5053876;28;20028;-58
2023/05/10 06:25:57;;;;;;;1.77;1.05;;;;;;;;;;5053798;28;20422;-58
2023/05/10 06:28:23;;;;;;;1.25;0.70;;;;;;;;;;5054059;28;20037;-58
2023/05/10 06:30:49;;;;;;;1.65;0.80;;;;;;;;;;5053631;28;20059;-58
2023/05/10 06:33:15;;;;;;;2.67;0.70;;;;;;;;;;5054010;28;20378;-58
2023/05/10 06:35:42;;;;;;;1.05;0.50;;;;;;;;;;5053640;28;20074;-58
2023/05/10 06:38:07;;;;;;;1.45;0.70;;;;;;;;;;5053930;28;20375;-58
2023/05/10 06:40:34;;;;;;;1.33;0.68;;;;;;;;;;5053856;28;20025;-58
2023/05/10 06:43:00;;;;;;;1.27;0.65;;;;;;;;;;5053676;28;20033;-58
2023/05/10 06:45:26;;;;;;;4.18;1.25;;;;;;;;;;5053864;28;20374;-58
2023/05/10 06:47:52;;;;;;;1.27;0.60;;;;;;;;;;5054202;28;20071;-59
2023/05/10 06:50:18;;;;;;;1.67;0.90;;;;;;;;;;5053537;28;20018;-58
2023/05/10 06:52:44;;;;;;;2.00;0.98;;;;;;;;;;5053162;28;20029;-58
2023/05/10 06:55:10;;;;;;;1.65;0.73;;;;;;;;;;5053444;28;20035;-58
2023/05/10 06:57:36;;;;;;;2.35;0.98;;;;;;;;;;5053737;28;20040;-58
2023/05/10 07:00:03;;;;;;;2.05;0.98;;;;;;;;;;5053540;28;20029;-58
2023/05/10 07:02:30;;;;;;;3.45;1.05;;;;;;;;;;5054048;28;20040;-58
2023/05/10 07:04:56;;;;;;;2.00;0.95;;;;;;;;;;5053426;28;20052;-58
2023/05/10 07:07:22;;;;;;;1.55;0.88;;;;;;;;;;5053644;28;20112;-58
2023/05/10 07:09:49;;;;;;;1.35;0.85;;;;;;;;;;5054105;28;20410;-58
2023/05/10 07:12:15;;;;;;;1.60;0.90;;;;;;;;;;5057866;28;20367;-58
2023/05/10 07:14:41;;;;;;;1.35;0.75;;;;;;;;;;5057355;28;20068;-59
2023/05/10 07:17:07;;;;;;;1.65;0.85;;;;;;;;;;5057293;28;20037;-58
2023/05/10 07:19:33;;;;;;;1.90;0.80;;;;;;;;;;5057233;28;20045;-58
2023/05/10 07:21:59;;;;;;;1.77;0.88;;;;;;;;;;5057085;28;20025;-58
2023/05/10 07:24:25;;;;;;;1.65;0.73;;;;;;;;;;5057660;28;20332;-58
2023/05/10 07:26:51;;;;;;;1.63;0.80;;;;;;;;;;5057401;28;20025;-58
2023/05/10 07:29:17;;;;;;;1.40;0.70;;;;;;;;;;5056883;28;20036;-58
2023/05/10 07:31:43;;;;;;;1.90;0.98;;;;;;;;;;5056919;28;20029;-59
2023/05/10 07:34:09;;;;;;;1.25;0.70;;;;;;;;;;5056967;28;20064;-58
2023/05/10 07:36:35;;;;;;;1.55;1.00;;;;;;;;;;5057411;28;20455;-59
2023/05/10 07:39:01;;;;;;;1.38;0.63;;;;;;;;;;5056686;28;20054;-58
2023/05/10 07:41:27;;;;;;;1.17;0.63;;;;;;;;;;5057458;28;20120;-59
2023/05/10 07:43:53;;;;;;;1.25;0.70;;;;;;;;;;5057025;28;20162;-59
2023/05/10 07:46:20;;;;;;;1.35;0.82;;;;;;;;;;5057000;28;20021;-59
2023/05/10 07:48:46;;;;;;;2.65;0.85;;;;;;;;;;5056644;28;20103;-59
2023/05/10 07:51:12;;;;;;;1.48;0.68;;;;;;;;;;5056596;28;20036;-59
2023/05/10 07:53:38;;;;;;;1.52;0.68;;;;;;;;;;5056350;28;20459;-59
2023/05/10 07:56:23;;;;;;;1.30;0.88;;;;;;;;;;5056855;28;20075;-59
2023/05/10 07:58:49;;;;;;;1.75;1.00;;;;;;;;;;5056451;28;20494;-59
2023/05/10 08:01:15;;;;;;;1.30;0.70;;;;;;;;;;5056472;28;20049;-59
2023/05/10 08:03:41;;;;;;;1.48;0.85;;;;;;;;;;5056442;28;20025;-59
2023/05/10 08:06:07;;;;;;;1.20;0.60;;;;;;;;;;5056702;28;20037;-59
2023/05/10 08:08:33;;;;;;;1.77;0.65;;;;;;;;;;5056303;28;20033;-59
2023/05/10 08:10:59;;;;;;;1.10;0.50;;;;;;;;;;5056318;28;20370;-59
2023/05/10 08:13:25;;;;;;;1.23;0.50;;;;;;;;;;5056260;28;20025;-60
2023/05/10 08:15:52;;;;;;;0.90;0.50;;;;;;;;;;5056239;28;20053;-58
2023/05/10 08:18:19;;;;;;;1.85;0.52;;;;;;;;;;5056096;28;20036;-58
2023/05/10 08:20:45;;;;;;;1.08;0.63;;;;;;;;;;5056207;28;20033;-60
2023/05/10 08:23:13;;;;;;;0.95;0.45;;;;;;;;;;5053674;28;20033;-60
2023/05/10 08:25:39;;;;;;;1.38;0.60;;;;;;;;;;5056102;28;20033;-59
2023/05/10 08:28:05;;;;;;;1.45;0.60;;;;;;;;;;5055964;28;20079;-58
2023/05/10 08:30:31;;;;;;;1.00;0.45;;;;;;;;;;5056178;28;20029;-58
2023/05/10 08:32:57;;;;;;;1.45;0.68;;;;;;;;;;5056119;28;20032;-58
2023/05/10 08:35:24;;;;;;;1.50;0.70;;;;;;;;;;5055909;28;20029;-58
2023/05/10 08:37:50;;;;;;;0.90;0.50;;;;;;;;;;5055646;28;20029;-58
2023/05/10 08:40:16;;;;;;;1.65;0.40;;;;;;;;;;5055902;28;20115;-58
2023/05/10 08:42:46;;;;;;;1.08;0.55;;;;;;;;;;5056191;28;20029;-58
2023/05/10 08:45:12;;;;;;;0.77;0.40;;;;;;;;;;5056261;28;20052;-58
2023/05/10 08:47:39;;;;;;;0.77;0.38;;;;;;;;;;5056000;28;20029;-58
2023/05/10 08:50:05;;;;;;;0.50;0.30;;;;;;;;;;5055463;28;20366;-58
2023/05/10 08:52:33;;;;;;;0.70;0.30;;;;;;;;;;5055487;28;20466;-58
2023/05/10 08:54:59;;;;;;;2.05;0.60;;;;;;;;;;5055507;28;20025;-58
2023/05/10 08:57:25;;;;;;;0.82;0.35;;;;;;;;;;5055049;28;20119;-58
2023/05/10 08:59:51;;;;;;;1.88;0.38;;;;;;;;;;5055747;28;20112;-58
2023/05/10 09:02:18;;;;;;;0.82;0.40;;;;;;;;;;5055341;28;20032;-58
2023/05/10 09:04:44;;;;;;;0.75;0.30;;;;;;;;;;5055270;28;20021;-58
2023/05/10 09:07:11;;;;;;;1.75;0.63;;;;;;;;;;5056101;28;20051;-58
2023/05/10 09:09:37;;;;;;;0.95;0.40;;;;;;;;;;5055503;28;20028;-58
2023/05/10 09:12:03;;;;;;;1.15;0.50;;;;;;;;;;5055207;28;20103;-58
2023/05/10 09:14:29;;;;;;;0.77;0.35;;;;;;;;;;5055067;28;20484;-59
2023/05/10 09:16:55;;;;;;;0.70;0.30;;;;;;;;;;5054944;28;20029;-58
2023/05/10 09:19:21;;;;;;;1.15;0.38;;;;;;;;;;5055496;28;20036;-58
2023/05/10 09:21:47;;;;;;;1.83;0.57;;;;;;;;;;5055468;28;20025;-58
2023/05/10 09:24:13;;;;;;;0.73;0.47;;;;;;;;;;5054920;28;20115;-58
2023/05/10 09:26:49;;;;;;;1.48;0.70;;;;;;;;;;5055647;28;20028;-58
2023/05/10 09:29:15;;;;;;;0.98;0.40;;;;;;;;;;5054857;28;20021;-58
2023/05/10 09:31:51;;;;;;;0.30;0.20;;;;;;;;;;5054735;28;20382;-58
2023/05/10 09:34:20;;;;;;;0.75;0.40;;;;;;;;;;5054561;28;20463;-58
2023/05/10 09:36:57;;;;;;;0.52;0.30;;;;;;;;;;5055187;28;20040;-58
2023/05/10 09:39:33;;;;;;;1.27;0.70;;;;;;;;;;5054491;28;20036;-58
2023/05/10 09:42:01;;;;;;;0.68;0.30;;;;;;;;;;5054913;28;20044;-58
2023/05/10 09:44:27;;;;;;;1.95;0.35;;;;;;;;;;5054487;28;20124;-58
2023/05/10 09:46:53;;;;;;;1.67;0.50;;;;;;;;;;5054670;28;20120;-59
2023/05/10 09:49:19;;;;;;;0.47;0.20;;;;;;;;;;5054419;28;20057;-58
2023/05/10 09:51:46;;;;;;;0.88;0.50;;;;;;;;;;5054631;28;20032;-58
2023/05/10 09:54:13;;;;;;;1.08;0.40;;;;;;;;;;5054779;28;20029;-58
2023/05/10 09:56:40;;;;;;;0.40;0.20;;;;;;;;;;5054332;28;20064;-59
2023/05/10 09:59:06;;;;;;;1.38;0.40;;;;;;;;;;5054260;28;20083;-58
2023/05/10 10:01:32;;;;;;;0.65;0.30;;;;;;;;;;5054276;28;20029;-58
2023/05/10 10:03:58;;;;;;;0.70;0.22;;;;;;;;;;5054215;28;20521;-58
2023/05/10 10:06:25;;;;;;;0.63;0.30;;;;;;;;;;5054745;28;20029;-58
2023/05/10 10:08:52;;;;;;;0.93;0.40;;;;;;;;;;5054393;28;20028;-58
2023/05/10 10:11:18;;;;;;;1.10;0.20;;;;;;;;;;5053968;28;20029;-58
2023/05/10 10:13:44;;;;;;;0.98;0.20;;;;;;;;;;5054281;28;20036;-58
2023/05/10 10:16:10;;;;;;;0.90;0.40;;;;;;;;;;5054828;28;20128;-59
2023/05/10 10:18:39;;;;;;;0.65;0.38;;;;;;;;;;5053975;28;20471;-58
2023/05/10 10:21:06;;;;;;;1.17;0.47;;;;;;;;;;5053531;28;20462;-58
2023/05/10 10:23:32;;;;;;;0.22;0.10;;;;;;;;;;5054457;28;20163;-58
2023/05/10 10:25:58;;;;;;;0.50;0.20;;;;;;;;;;5054243;28;20108;-58
2023/05/10 10:28:33;;;;;;;0.38;0.20;;;;;;;;;;5054113;28;20029;-58
2023/05/10 10:31:02;;;;;;;0.52;0.20;;;;;;;;;;5054208;28;20028;-58
2023/05/10 10:33:40;;;;;;;0.65;0.20;;;;;;;;;;5053814;28;20056;-58
2023/05/10 10:36:06;;;;;;;1.55;0.60;;;;;;;;;;5053694;28;20102;-58
2023/05/10 10:38:47;;;;;;;0.75;0.30;;;;;;;;;;5053374;28;20549;-58
2023/05/10 10:41:33;;;;;;;1.38;0.38;;;;;;;;;;5053720;28;20074;-58
2023/05/10 10:44:18;;;;;;;0.63;0.28;;;;;;;;;;5054130;28;20052;-58
2023/05/10 10:47:05;;;;;;;0.45;0.20;;;;;;;;;;5060201;28;20033;-58
2023/05/10 10:49:33;;;;;;;0.28;0.20;;;;;;;;;;5060871;28;20032;-58
2023/05/10 10:52:13;;;;;;;0.70;0.25;;;;;;;;;;5059898;28;20470;-58
2023/05/10 10:54:39;;;;;;;1.13;0.30;;;;;;;;;;5060812;28;20029;-58
2023/05/10 10:57:13;;;;;;;0.75;0.30;;;;;;;;;;5060661;28;20371;-59
2023/05/10 10:59:46;;;;;;;0.65;0.30;;;;;;;;;;5060678;28;20047;-58
2023/05/10 11:02:30;;;;;;;0.98;0.40;;;;;;;;;;5060163;28;20021;-58
2023/05/10 11:04:56;;;;;;;1.05;0.40;;;;;;;;;;5060170;28;20029;-58
2023/05/10 11:07:22;;;;;;;1.00;0.40;;;;;;;;;;5060932;28;20147;-58
2023/05/10 11:09:48;;;;;;;0.55;0.22;;;;;;;;;;5059989;28;20029;-58
2023/05/10 11:12:15;;;;;;;3.30;0.25;;;;;;;;;;5060355;28;20032;-58
2023/05/10 11:14:41;;;;;;;0.22;0.13;;;;;;;;;;5060609;28;20120;-58
2023/05/10 11:17:29;;;;;;;0.63;0.28;;;;;;;;;;5059986;28;20056;-58
2023/05/10 11:20:11;;;;;;;0.52;0.20;;;;;;;;;;5059970;28;20056;-58
2023/05/10 11:22:53;;;;;;;0.17;0.10;;;;;;;;;;5059947;28;20032;-58
2023/05/10 11:25:19;;;;;;;0.63;0.32;;;;;;;;;;5060026;28;20025;-58
2023/05/10 11:27:45;;;;;;;0.68;0.38;;;;;;;;;;5060539;28;20069;-58
2023/05/10 11:30:12;;;;;;;0.90;0.40;;;;;;;;;;5059918;28;20028;-58
2023/05/10 11:32:38;;;;;;;0.70;0.30;;;;;;;;;;5060005;28;20025;-58
2023/05/10 11:35:11;;;;;;;0.52;0.20;;;;;;;;;;5059949;28;20367;-58
2023/05/10 11:37:40;;;;;;;1.35;0.55;;;;;;;;;;5060093;28;20047;-60
2023/05/10 11:40:07;;;;;;;0.80;0.40;;;;;;;;;;5059680;28;20516;-58
2023/05/10 11:42:33;;;;;;;0.82;0.25;;;;;;;;;;5059973;28;20033;-58
2023/05/10 11:45:00;;;;;;;0.47;0.20;;;;;;;;;;5059664;28;20108;-58
2023/05/10 11:47:26;;;;;;;1.58;0.55;;;;;;;;;;5060251;28;20032;-58
2023/05/10 11:49:52;;;;;;;0.68;0.40;;;;;;;;;;5059735;28;20099;-58
2023/05/10 11:52:19;;;;;;;1.08;0.60;;;;;;;;;;5059214;28;20031;-58
2023/05/10 11:54:52;;;;;;;1.08;0.45;;;;;;;;;;5060161;28;20048;-58
2023/05/10 11:57:21;;;;;;;0.70;0.20;;;;;;;;;;5057347;28;20512;-58
2023/05/10 11:59:47;;;;;;;0.52;0.30;;;;;;;;;;5056443;28;20441;-58
2023/05/10 12:02:14;;;;;;;0.75;0.25;;;;;;;;;;5056344;28;20054;-58
2023/05/10 12:04:41;;;;;;;0.52;0.30;;;;;;;;;;5056347;28;20028;-58
2023/05/10 12:07:07;;;;;;;0.70;0.30;;;;;;;;;;5056685;28;20067;-59
2023/05/10 12:09:33;;;;;;;1.52;0.30;;;;;;;;;;5056830;28;20033;-60
2023/05/10 12:11:59;;;;;;;1.52;0.50;;;;;;;;;;5056200;28;20036;-60
2023/05/10 12:14:25;;;;;;;0.75;0.40;;;;;;;;;;5055795;28;20132;-60
2023/05/10 12:16:51;;;;;;;1.13;0.70;;;;;;;;;;5056758;28;20171;-60
2023/05/10 12:19:21;;;;;;;0.82;0.47;;;;;;;;;;5056112;28;20031;-59
2023/05/10 12:21:47;;;;;;;1.40;0.60;;;;;;;;;;5056651;28;20048;-59
2023/05/10 12:24:16;;;;;;;1.30;0.80;;;;;;;;;;5055644;28;20478;-59
2023/05/10 12:26:42;;;;;;;2.30;1.25;;;;;;;;;;5056522;28;20033;-60
2023/05/10 12:29:14;;;;;;;0.98;0.40;;;;;;;;;;5055986;28;20034;-59
2023/05/10 12:31:54;;;;;;;0.85;0.40;;;;;;;;;;5056389;28;20367;-58
2023/05/10 12:34:24;;;;;;;1.45;0.50;;;;;;;;;;5055736;28;20499;-58
2023/05/10 12:36:53;;;;;;;0.85;0.50;;;;;;;;;;5056374;28;20091;-58
2023/05/10 12:39:19;;;;;;;0.57;0.30;;;;;;;;;;5056196;28;20028;-58
2023/05/10 12:41:45;;;;;;;1.00;0.40;;;;;;;;;;5055728;28;20316;-58
2023/05/10 12:44:11;;;;;;;1.00;0.47;;;;;;;;;;5056102;28;20029;-58
2023/05/10 12:46:37;;;;;;;1.40;0.60;;;;;;;;;;5056297;28;20025;-58
2023/05/10 12:49:03;;;;;;;1.88;0.45;;;;;;;;;;5055541;28;20100;-58
2023/05/10 12:51:30;;;;;;;0.98;0.60;;;;;;;;;;5055434;28;20025;-58
2023/05/10 12:53:56;;;;;;;1.48;0.70;;;;;;;;;;5055830;28;20013;-58
2023/05/10 12:56:22;;;;;;;1.85;0.55;;;;;;;;;;5055944;28;20058;-59
2023/05/10 12:58:48;;;;;;;1.90;0.60;;;;;;;;;;5054932;28;20565;-58
2023/05/10 13:01:14;;;;;;;0.73;0.30;;;;;;;;;;5055780;28;20470;-59
2023/05/10 13:03:40;;;;;;;1.20;0.63;;;;;;;;;;5055252;28;20048;-58
2023/05/10 13:06:06;;;;;;;4.15;0.68;;;;;;;;;;5055279;28;20463;-58
2023/05/10 13:08:33;;;;;;;1.58;0.65;;;;;;;;;;5054673;28;20044;-58
2023/05/10 13:11:02;;;;;;;2.47;0.52;;;;;;;;;;5055075;28;20021;-58
2023/05/10 13:13:28;;;;;;;0.82;0.43;;;;;;;;;;5054884;28;20391;-59
2023/05/10 13:15:54;;;;;;;1.50;0.70;;;;;;;;;;5055754;28;20040;-58
2023/05/10 13:18:20;;;;;;;1.40;0.70;;;;;;;;;;5055046;28;20037;-58
2023/05/10 13:20:46;;;;;;;3.38;0.85;;;;;;;;;;5055021;28;20052;-59
2023/05/10 13:23:12;;;;;;;0.80;0.50;;;;;;;;;;5054901;28;20075;-58
2023/05/10 13:25:38;;;;;;;1.42;0.52;;;;;;;;;;5055316;28;20075;-59
2023/05/10 13:28:04;;;;;;;1.67;0.50;;;;;;;;;;5055199;28;20037;-58
2023/05/10 13:30:30;;;;;;;1.40;0.63;;;;;;;;;;5054689;28;20025;-58
2023/05/10 13:32:56;;;;;;;1.55;0.57;;;;;;;;;;5054645;28;20079;-59
2023/05/10 13:35:22;;;;;;;1.00;0.43;;;;;;;;;;5054399;28;20028;-58
2023/05/10 13:37:48;;;;;;;0.57;0.30;;;;;;;;;;5054815;28;20061;-59
2023/05/10 13:40:15;;;;;;;1.85;0.55;;;;;;;;;;5054853;28;20486;-58
2023/05/10 13:42:41;;;;;;;1.30;0.50;;;;;;;;;;5055067;28;20027;-59
2023/05/10 13:45:07;;;;;;;0.50;0.25;;;;;;;;;;5054824;28;20021;-60
2023/05/10 13:47:33;;;;;;;1.70;0.50;;;;;;;;;;5054503;28;20021;-58
2023/05/10 13:50:00;;;;;;;3.22;0.43;;;;;;;;;;5054736;28;20352;-59
2023/05/10 13:52:26;;;;;;;2.10;0.52;;;;;;;;;;5054263;28;20107;-59
2023/05/10 13:54:54;;;;;;;0.95;0.38;;;;;;;;;;5054368;28;20035;-58
2023/05/10 13:57:20;;;;;;;0.85;0.45;;;;;;;;;;5054197;28;20071;-58
2023/05/10 13:59:46;;;;;;;0.90;0.40;;;;;;;;;;5054408;28;20083;-59
2023/05/10 14:02:13;;;;;;;1.67;0.85;;;;;;;;;;5053773;28;20509;-58
2023/05/10 14:04:38;;;;;;;1.05;0.45;;;;;;;;;;5053826;28;20032;-58
2023/05/10 14:07:05;;;;;;;1.48;0.50;;;;;;;;;;5053886;28;20418;-60
2023/05/10 14:09:31;;;;;;;0.90;0.40;;;;;;;;;;5054024;28;20111;-60
2023/05/10 14:11:57;;;;;;;0.95;0.47;;;;;;;;;;5054547;28;20064;-60
2023/05/10 14:14:23;;;;;;;1.20;0.43;;;;;;;;;;5054174;28;20061;-60
2023/05/10 14:16:49;;;;;;;1.13;0.43;;;;;;;;;;5054441;28;20419;-60
2023/05/10 14:19:15;;;;;;;0.85;0.38;;;;;;;;;;5053562;28;20029;-60
2023/05/10 14:21:41;;;;;;;1.00;0.60;;;;;;;;;;5053830;28;20067;-60
2023/05/10 14:24:07;;;;;;;0.60;0.30;;;;;;;;;;5053872;28;20057;-60
2023/05/10 14:26:34;;;;;;;0.52;0.32;;;;;;;;;;5054027;28;20127;-60
2023/05/10 14:29:00;;;;;;;2.63;0.52;;;;;;;;;;5054317;28;20474;-59
2023/05/10 14:31:26;;;;;;;1.42;0.65;;;;;;;;;;5053799;28;20055;-58
2023/05/10 14:33:52;;;;;;;1.15;0.55;;;;;;;;;;5053610;28;20078;-57
2023/05/10 14:36:19;;;;;;;3.40;0.63;;;;;;;;;;5054284;28;20443;-59
2023/05/10 14:38:45;;;;;;;1.27;0.50;;;;;;;;;;5053761;28;20102;-59
2023/05/10 14:41:14;;;;;;;0.68;0.40;;;;;;;;;;5053621;28;20068;-60
2023/05/10 14:43:40;;;;;;;1.42;0.68;;;;;;;;;;5053568;28;20090;-60